sensor_id;sensor_type;location;lat;lon;timestamp;P1;durP1;ratioP1;P2;durP2;ratioP2
22070;SDS011;11200;51.488;6.668;2022-08-21T00:01:17;3.25;;;2.10;;
22070;SDS011;11200;51.488;6.668;2022-08-21T00:03:45;3.08;;;1.83;;
22070;SDS011;11200;51.488;6.668;2022-08-21T00:06:11;3.13;;;1.83;;
22070;SDS011;11200;51.488;6.668;2022-08-21T00:08:37;3.92;;;1.90;;
22070;SDS011;11200;51.488;6.668;2022-08-21T00:11:02;2.15;;;1.80;;
22070;SDS011;11200;51.488;6.668;2022-08-21T00:13:29;3.35;;;2.13;;
22070;SDS011;11200;51.488;6.668;2022-08-21T00:15:55;3.78;;;1.90;;
22070;SDS011;11200;51.488;6.668;2022-08-21T00:18:21;2.15;;;1.70;;
22070;SDS011;11200;51.488;6.668;2022-08-21T00:20:47;3.03;;;1.83;;
22070;SDS011;11200;51.488;6.668;2022-08-21T00:23:13;2.50;;;1.88;;
22070;SDS011;11200;51.488;6.668;2022-08-21T00:25:39;2.20;;;1.60;;
22070;SDS011;11200;51.488;6.668;2022-08-21T00:28:05;2.85;;;2.00;;
22070;SDS011;11200;51.488;6.668;2022-08-21T00:30:31;2.50;;;1.80;;
22070;SDS011;11200;51.488;6.668;2022-08-21T00:32:58;2.35;;;1.90;;
22070;SDS011;11200;51.488;6.668;2022-08-21T00:35:26;2.72;;;2.08;;
22070;SDS011;11200;51.488;6.668;2022-08-21T00:37:54;2.63;;;1.90;;
22070;SDS011;11200;51.488;6.668;2022-08-21T00:40:22;2.38;;;1.90;;
22070;SDS011;11200;51.488;6.668;2022-08-21T00:42:51;2.83;;;1.80;;
22070;SDS011;11200;51.488;6.668;2022-08-21T00:45:19;3.75;;;1.90;;
22070;SDS011;11200;51.488;6.668;2022-08-21T00:47:45;2.92;;;2.00;;
22070;SDS011;11200;51.488;6.668;2022-08-21T00:50:11;3.88;;;2.08;;
22070;SDS011;11200;51.488;6.668;2022-08-21T00:52:37;2.53;;;1.90;;
22070;SDS011;11200;51.488;6.668;2022-08-21T00:55:06;2.67;;;1.98;;
22070;SDS011;11200;51.488;6.668;2022-08-21T00:57:36;2.97;;;1.90;;
22070;SDS011;11200;51.488;6.668;2022-08-21T01:00:09;2.50;;;1.77;;
22070;SDS011;11200;51.488;6.668;2022-08-21T01:02:37;3.13;;;1.90;;
22070;SDS011;11200;51.488;6.668;2022-08-21T01:05:03;2.28;;;1.95;;
22070;SDS011;11200;51.488;6.668;2022-08-21T01:07:29;2.65;;;2.10;;
22070;SDS011;11200;51.488;6.668;2022-08-21T01:09:56;2.63;;;2.00;;
22070;SDS011;11200;51.488;6.668;2022-08-21T01:12:21;4.00;;;2.33;;
22070;SDS011;11200;51.488;6.668;2022-08-21T01:14:48;3.10;;;2.00;;
22070;SDS011;11200;51.488;6.668;2022-08-21T01:17:14;2.35;;;2.03;;
22070;SDS011;11200;51.488;6.668;2022-08-21T01:19:40;2.25;;;2.05;;
22070;SDS011;11200;51.488;6.668;2022-08-21T01:22:06;2.25;;;2.00;;
22070;SDS011;11200;51.488;6.668;2022-08-21T01:24:32;2.25;;;2.05;;
22070;SDS011;11200;51.488;6.668;2022-08-21T01:26:58;2.10;;;1.67;;
22070;SDS011;11200;51.488;6.668;2022-08-21T01:32:04;2.38;;;2.00;;
22070;SDS011;11200;51.488;6.668;2022-08-21T01:34:36;3.88;;;2.50;;
22070;SDS011;11200;51.488;6.668;2022-08-21T01:37:03;2.53;;;2.00;;
22070;SDS011;11200;51.488;6.668;2022-08-21T01:39:29;3.55;;;2.03;;
22070;SDS011;11200;51.488;6.668;2022-08-21T01:41:55;3.15;;;2.03;;
22070;SDS011;11200;51.488;6.668;2022-08-21T01:44:24;2.80;;;2.25;;
22070;SDS011;11200;51.488;6.668;2022-08-21T01:46:50;3.53;;;2.00;;
22070;SDS011;11200;51.488;6.668;2022-08-21T01:49:17;2.78;;;2.30;;
22070;SDS011;11200;51.488;6.668;2022-08-21T01:51:42;2.28;;;2.05;;
22070;SDS011;11200;51.488;6.668;2022-08-21T01:54:08;2.30;;;2.10;;
22070;SDS011;11200;51.488;6.668;2022-08-21T01:56:36;2.30;;;2.10;;
22070;SDS011;11200;51.488;6.668;2022-08-21T01:59:08;2.60;;;2.33;;
22070;SDS011;11200;51.488;6.668;2022-08-21T02:01:34;3.08;;;2.03;;
22070;SDS011;11200;51.488;6.668;2022-08-21T02:04:01;3.67;;;2.25;;
22070;SDS011;11200;51.488;6.668;2022-08-21T02:06:27;2.75;;;2.25;;
22070;SDS011;11200;51.488;6.668;2022-08-21T02:08:53;2.63;;;2.08;;
22070;SDS011;11200;51.488;6.668;2022-08-21T02:11:18;3.60;;;2.15;;
22070;SDS011;11200;51.488;6.668;2022-08-21T02:13:45;3.28;;;2.35;;
22070;SDS011;11200;51.488;6.668;2022-08-21T02:16:11;2.60;;;2.15;;
22070;SDS011;11200;51.488;6.668;2022-08-21T02:18:37;2.90;;;2.17;;
22070;SDS011;11200;51.488;6.668;2022-08-21T02:21:03;3.05;;;2.08;;
22070;SDS011;11200;51.488;6.668;2022-08-21T02:23:29;3.25;;;2.60;;
22070;SDS011;11200;51.488;6.668;2022-08-21T02:25:56;2.75;;;2.17;;
22070;SDS011;11200;51.488;6.668;2022-08-21T02:28:23;3.47;;;2.28;;
22070;SDS011;11200;51.488;6.668;2022-08-21T02:30:49;2.85;;;2.10;;
22070;SDS011;11200;51.488;6.668;2022-08-21T02:33:16;2.70;;;2.20;;
22070;SDS011;11200;51.488;6.668;2022-08-21T02:35:43;2.72;;;1.90;;
22070;SDS011;11200;51.488;6.668;2022-08-21T02:38:11;5.57;;;2.00;;
22070;SDS011;11200;51.488;6.668;2022-08-21T02:40:43;2.53;;;2.15;;
22070;SDS011;11200;51.488;6.668;2022-08-21T02:43:10;2.78;;;2.05;;
22070;SDS011;11200;51.488;6.668;2022-08-21T02:45:37;3.20;;;2.42;;
22070;SDS011;11200;51.488;6.668;2022-08-21T02:48:07;3.10;;;2.22;;
22070;SDS011;11200;51.488;6.668;2022-08-21T02:50:45;2.42;;;2.20;;
22070;SDS011;11200;51.488;6.668;2022-08-21T02:53:13;3.10;;;2.30;;
22070;SDS011;11200;51.488;6.668;2022-08-21T02:55:41;2.40;;;2.10;;
22070;SDS011;11200;51.488;6.668;2022-08-21T02:58:08;3.28;;;2.40;;
22070;SDS011;11200;51.488;6.668;2022-08-21T03:00:35;3.42;;;2.25;;
22070;SDS011;11200;51.488;6.668;2022-08-21T03:03:02;3.17;;;2.13;;
22070;SDS011;11200;51.488;6.668;2022-08-21T03:05:29;3.45;;;2.42;;
22070;SDS011;11200;51.488;6.668;2022-08-21T03:07:59;2.75;;;2.20;;
22070;SDS011;11200;51.488;6.668;2022-08-21T03:10:27;3.47;;;2.28;;
22070;SDS011;11200;51.488;6.668;2022-08-21T03:12:53;2.80;;;2.30;;
22070;SDS011;11200;51.488;6.668;2022-08-21T03:15:20;3.20;;;2.15;;
22070;SDS011;11200;51.488;6.668;2022-08-21T03:17:48;3.65;;;2.38;;
22070;SDS011;11200;51.488;6.668;2022-08-21T03:20:15;3.05;;;2.20;;
22070;SDS011;11200;51.488;6.668;2022-08-21T03:22:43;2.83;;;2.22;;
22070;SDS011;11200;51.488;6.668;2022-08-21T03:25:09;3.00;;;2.40;;
22070;SDS011;11200;51.488;6.668;2022-08-21T03:27:36;3.03;;;2.33;;
22070;SDS011;11200;51.488;6.668;2022-08-21T03:30:03;3.67;;;2.38;;
22070;SDS011;11200;51.488;6.668;2022-08-21T03:32:30;2.75;;;2.10;;
22070;SDS011;11200;51.488;6.668;2022-08-21T03:34:56;2.80;;;2.40;;
22070;SDS011;11200;51.488;6.668;2022-08-21T03:37:23;2.50;;;2.20;;
22070;SDS011;11200;51.488;6.668;2022-08-21T03:39:49;3.55;;;2.15;;
22070;SDS011;11200;51.488;6.668;2022-08-21T03:42:15;2.80;;;2.40;;
22070;SDS011;11200;51.488;6.668;2022-08-21T03:44:41;2.80;;;2.30;;
22070;SDS011;11200;51.488;6.668;2022-08-21T03:47:06;2.35;;;2.15;;
22070;SDS011;11200;51.488;6.668;2022-08-21T03:49:32;2.88;;;2.42;;
22070;SDS011;11200;51.488;6.668;2022-08-21T03:51:58;3.42;;;2.50;;
22070;SDS011;11200;51.488;6.668;2022-08-21T03:54:24;3.67;;;2.30;;
22070;SDS011;11200;51.488;6.668;2022-08-21T03:56:50;3.38;;;2.42;;
22070;SDS011;11200;51.488;6.668;2022-08-21T03:59:17;2.80;;;2.50;;
22070;SDS011;11200;51.488;6.668;2022-08-21T04:01:56;2.55;;;2.35;;
22070;SDS011;11200;51.488;6.668;2022-08-21T04:04:24;4.75;;;2.45;;
22070;SDS011;11200;51.488;6.668;2022-08-21T04:06:50;3.33;;;2.63;;
22070;SDS011;11200;51.488;6.668;2022-08-21T04:09:16;4.00;;;2.80;;
22070;SDS011;11200;51.488;6.668;2022-08-21T04:11:43;3.17;;;2.50;;
22070;SDS011;11200;51.488;6.668;2022-08-21T04:14:10;3.88;;;2.78;;
22070;SDS011;11200;51.488;6.668;2022-08-21T04:16:36;2.63;;;2.30;;
22070;SDS011;11200;51.488;6.668;2022-08-21T04:19:01;4.03;;;2.63;;
22070;SDS011;11200;51.488;6.668;2022-08-21T04:21:27;3.35;;;2.50;;
22070;SDS011;11200;51.488;6.668;2022-08-21T04:23:56;3.92;;;2.42;;
22070;SDS011;11200;51.488;6.668;2022-08-21T04:26:22;2.95;;;2.60;;
22070;SDS011;11200;51.488;6.668;2022-08-21T04:28:47;4.90;;;2.80;;
22070;SDS011;11200;51.488;6.668;2022-08-21T04:31:13;3.97;;;2.72;;
22070;SDS011;11200;51.488;6.668;2022-08-21T04:33:39;3.80;;;2.65;;
22070;SDS011;11200;51.488;6.668;2022-08-21T04:36:05;2.50;;;2.30;;
22070;SDS011;11200;51.488;6.668;2022-08-21T04:38:31;3.28;;;2.65;;
22070;SDS011;11200;51.488;6.668;2022-08-21T04:40:57;3.05;;;2.50;;
22070;SDS011;11200;51.488;6.668;2022-08-21T04:43:23;3.08;;;2.60;;
22070;SDS011;11200;51.488;6.668;2022-08-21T04:45:49;2.40;;;2.20;;
22070;SDS011;11200;51.488;6.668;2022-08-21T04:48:18;3.38;;;2.58;;
22070;SDS011;11200;51.488;6.668;2022-08-21T04:51:00;3.30;;;2.97;;
22070;SDS011;11200;51.488;6.668;2022-08-21T04:53:31;2.97;;;2.53;;
22070;SDS011;11200;51.488;6.668;2022-08-21T04:56:01;3.20;;;2.50;;
22070;SDS011;11200;51.488;6.668;2022-08-21T04:58:33;3.40;;;2.70;;
22070;SDS011;11200;51.488;6.668;2022-08-21T05:01:01;3.58;;;2.75;;
22070;SDS011;11200;51.488;6.668;2022-08-21T05:03:29;3.70;;;2.60;;
22070;SDS011;11200;51.488;6.668;2022-08-21T05:05:58;3.70;;;2.60;;
22070;SDS011;11200;51.488;6.668;2022-08-21T05:08:24;2.88;;;2.45;;
22070;SDS011;11200;51.488;6.668;2022-08-21T05:10:52;3.42;;;2.80;;
22070;SDS011;11200;51.488;6.668;2022-08-21T05:13:17;3.65;;;2.83;;
22070;SDS011;11200;51.488;6.668;2022-08-21T05:15:43;2.88;;;2.33;;
22070;SDS011;11200;51.488;6.668;2022-08-21T05:18:09;2.92;;;2.47;;
22070;SDS011;11200;51.488;6.668;2022-08-21T05:20:34;4.25;;;2.63;;
22070;SDS011;11200;51.488;6.668;2022-08-21T05:23:01;3.47;;;2.67;;
22070;SDS011;11200;51.488;6.668;2022-08-21T05:25:35;3.05;;;2.75;;
22070;SDS011;11200;51.488;6.668;2022-08-21T05:28:01;3.10;;;2.70;;
22070;SDS011;11200;51.488;6.668;2022-08-21T05:30:27;3.83;;;3.17;;
22070;SDS011;11200;51.488;6.668;2022-08-21T05:32:59;5.05;;;2.95;;
22070;SDS011;11200;51.488;6.668;2022-08-21T05:35:27;3.42;;;3.08;;
22070;SDS011;11200;51.488;6.668;2022-08-21T05:37:55;4.28;;;2.92;;
22070;SDS011;11200;51.488;6.668;2022-08-21T05:40:21;3.30;;;3.00;;
22070;SDS011;11200;51.488;6.668;2022-08-21T05:42:47;3.30;;;3.00;;
22070;SDS011;11200;51.488;6.668;2022-08-21T05:45:12;3.05;;;2.75;;
22070;SDS011;11200;51.488;6.668;2022-08-21T05:47:38;3.85;;;3.08;;
22070;SDS011;11200;51.488;6.668;2022-08-21T05:50:04;4.82;;;3.40;;
22070;SDS011;11200;51.488;6.668;2022-08-21T05:52:31;4.43;;;3.38;;
22070;SDS011;11200;51.488;6.668;2022-08-21T05:54:56;4.05;;;3.20;;
22070;SDS011;11200;51.488;6.668;2022-08-21T05:57:22;3.35;;;3.05;;
22070;SDS011;11200;51.488;6.668;2022-08-21T05:59:48;4.88;;;3.40;;
22070;SDS011;11200;51.488;6.668;2022-08-21T06:02:16;3.97;;;3.13;;
22070;SDS011;11200;51.488;6.668;2022-08-21T06:04:45;4.63;;;3.47;;
22070;SDS011;11200;51.488;6.668;2022-08-21T06:07:12;4.07;;;3.28;;
22070;SDS011;11200;51.488;6.668;2022-08-21T06:09:37;4.95;;;3.42;;
22070;SDS011;11200;51.488;6.668;2022-08-21T06:12:04;4.57;;;3.20;;
22070;SDS011;11200;51.488;6.668;2022-08-21T06:14:31;4.32;;;3.20;;
22070;SDS011;11200;51.488;6.668;2022-08-21T06:17:06;5.40;;;3.55;;
22070;SDS011;11200;51.488;6.668;2022-08-21T06:19:34;4.13;;;3.10;;
22070;SDS011;11200;51.488;6.668;2022-08-21T06:22:00;3.65;;;3.10;;
22070;SDS011;11200;51.488;6.668;2022-08-21T06:24:26;4.00;;;3.00;;
22070;SDS011;11200;51.488;6.668;2022-08-21T06:26:52;4.30;;;3.30;;
22070;SDS011;11200;51.488;6.668;2022-08-21T06:29:17;3.85;;;3.20;;
22070;SDS011;11200;51.488;6.668;2022-08-21T06:31:45;4.65;;;3.08;;
22070;SDS011;11200;51.488;6.668;2022-08-21T06:34:12;3.92;;;2.90;;
22070;SDS011;11200;51.488;6.668;2022-08-21T06:36:38;4.03;;;3.22;;
22070;SDS011;11200;51.488;6.668;2022-08-21T06:39:04;4.32;;;3.13;;
22070;SDS011;11200;51.488;6.668;2022-08-21T06:41:30;4.07;;;3.20;;
22070;SDS011;11200;51.488;6.668;2022-08-21T06:43:56;3.38;;;2.90;;
22070;SDS011;11200;51.488;6.668;2022-08-21T06:46:22;3.58;;;2.75;;
22070;SDS011;11200;51.488;6.668;2022-08-21T06:48:50;4.22;;;2.92;;
22070;SDS011;11200;51.488;6.668;2022-08-21T06:51:16;4.15;;;3.10;;
22070;SDS011;11200;51.488;6.668;2022-08-21T06:53:42;4.65;;;2.97;;
22070;SDS011;11200;51.488;6.668;2022-08-21T06:56:07;4.55;;;3.05;;
22070;SDS011;11200;51.488;6.668;2022-08-21T06:58:33;4.75;;;3.00;;
22070;SDS011;11200;51.488;6.668;2022-08-21T07:00:59;3.58;;;3.00;;
22070;SDS011;11200;51.488;6.668;2022-08-21T07:03:29;5.07;;;3.10;;
22070;SDS011;11200;51.488;6.668;2022-08-21T07:05:57;4.65;;;3.08;;
22070;SDS011;11200;51.488;6.668;2022-08-21T07:08:23;4.43;;;2.88;;
22070;SDS011;11200;51.488;6.668;2022-08-21T07:10:53;4.00;;;2.85;;
22070;SDS011;11200;51.488;6.668;2022-08-21T07:13:20;4.47;;;2.85;;
22070;SDS011;11200;51.488;6.668;2022-08-21T07:15:46;3.25;;;2.60;;
22070;SDS011;11200;51.488;6.668;2022-08-21T07:18:11;4.95;;;2.90;;
22070;SDS011;11200;51.488;6.668;2022-08-21T07:20:38;5.40;;;3.17;;
22070;SDS011;11200;51.488;6.668;2022-08-21T07:23:07;4.72;;;3.17;;
22070;SDS011;11200;51.488;6.668;2022-08-21T07:25:36;4.85;;;2.80;;
22070;SDS011;11200;51.488;6.668;2022-08-21T07:28:02;4.38;;;2.80;;
22070;SDS011;11200;51.488;6.668;2022-08-21T07:30:28;6.32;;;2.95;;
22070;SDS011;11200;51.488;6.668;2022-08-21T07:32:54;4.45;;;2.90;;
22070;SDS011;11200;51.488;6.668;2022-08-21T07:35:19;3.30;;;2.38;;
22070;SDS011;11200;51.488;6.668;2022-08-21T07:37:46;6.40;;;3.13;;
22070;SDS011;11200;51.488;6.668;2022-08-21T07:40:12;5.55;;;2.90;;
22070;SDS011;11200;51.488;6.668;2022-08-21T07:42:40;4.57;;;2.55;;
22070;SDS011;11200;51.488;6.668;2022-08-21T07:45:07;3.97;;;2.58;;
22070;SDS011;11200;51.488;6.668;2022-08-21T07:47:33;4.50;;;2.53;;
22070;SDS011;11200;51.488;6.668;2022-08-21T07:49:59;3.38;;;2.60;;
22070;SDS011;11200;51.488;6.668;2022-08-21T07:52:24;4.63;;;2.40;;
22070;SDS011;11200;51.488;6.668;2022-08-21T07:54:50;3.92;;;2.70;;
22070;SDS011;11200;51.488;6.668;2022-08-21T07:57:15;5.40;;;2.70;;
22070;SDS011;11200;51.488;6.668;2022-08-21T07:59:41;4.10;;;2.45;;
22070;SDS011;11200;51.488;6.668;2022-08-21T08:02:07;3.30;;;2.22;;
22070;SDS011;11200;51.488;6.668;2022-08-21T08:04:32;4.60;;;2.47;;
22070;SDS011;11200;51.488;6.668;2022-08-21T08:06:58;5.30;;;2.38;;
22070;SDS011;11200;51.488;6.668;2022-08-21T08:09:24;3.67;;;2.20;;
22070;SDS011;11200;51.488;6.668;2022-08-21T08:11:49;3.42;;;2.30;;
22070;SDS011;11200;51.488;6.668;2022-08-21T08:14:15;4.38;;;2.30;;
22070;SDS011;11200;51.488;6.668;2022-08-21T08:16:41;3.58;;;2.13;;
22070;SDS011;11200;51.488;6.668;2022-08-21T08:19:06;3.58;;;2.10;;
22070;SDS011;11200;51.488;6.668;2022-08-21T08:21:32;3.72;;;2.20;;
22070;SDS011;11200;51.488;6.668;2022-08-21T08:23:59;3.25;;;1.98;;
22070;SDS011;11200;51.488;6.668;2022-08-21T08:26:25;3.05;;;1.83;;
22070;SDS011;11200;51.488;6.668;2022-08-21T08:28:51;4.55;;;2.22;;
22070;SDS011;11200;51.488;6.668;2022-08-21T08:31:16;3.47;;;1.90;;
22070;SDS011;11200;51.488;6.668;2022-08-21T08:33:42;3.67;;;2.05;;
22070;SDS011;11200;51.488;6.668;2022-08-21T08:36:15;2.72;;;1.92;;
22070;SDS011;11200;51.488;6.668;2022-08-21T08:38:46;4.68;;;2.00;;
22070;SDS011;11200;51.488;6.668;2022-08-21T08:41:17;4.75;;;1.88;;
22070;SDS011;11200;51.488;6.668;2022-08-21T08:43:52;2.47;;;1.73;;
22070;SDS011;11200;51.488;6.668;2022-08-21T08:46:25;4.70;;;1.80;;
22070;SDS011;11200;51.488;6.668;2022-08-21T08:49:17;5.00;;;2.00;;
22070;SDS011;11200;51.488;6.668;2022-08-21T08:54:51;7.07;;;1.90;;
22070;SDS011;11200;51.488;6.668;2022-08-21T08:57:46;4.13;;;1.90;;
22070;SDS011;11200;51.488;6.668;2022-08-21T09:00:14;3.42;;;1.83;;
22070;SDS011;11200;51.488;6.668;2022-08-21T09:02:42;4.30;;;1.70;;
22070;SDS011;11200;51.488;6.668;2022-08-21T09:05:15;4.68;;;1.70;;
22070;SDS011;11200;51.488;6.668;2022-08-21T09:08:05;3.38;;;1.63;;
22070;SDS011;11200;51.488;6.668;2022-08-21T09:16:15;2.83;;;1.38;;
22070;SDS011;11200;51.488;6.668;2022-08-21T09:22:14;5.05;;;1.85;;
22070;SDS011;11200;51.488;6.668;2022-08-21T09:25:10;2.08;;;1.42;;
22070;SDS011;11200;51.488;6.668;2022-08-21T09:27:43;3.33;;;1.40;;
22070;SDS011;11200;51.488;6.668;2022-08-21T09:30:09;3.58;;;1.67;;
22070;SDS011;11200;51.488;6.668;2022-08-21T09:32:36;3.70;;;1.55;;
22070;SDS011;11200;51.488;6.668;2022-08-21T09:35:13;4.50;;;1.30;;
22070;SDS011;11200;51.488;6.668;2022-08-21T09:37:56;2.80;;;1.25;;
22070;SDS011;11200;51.488;6.668;2022-08-21T09:40:30;3.72;;;1.70;;
22070;SDS011;11200;51.488;6.668;2022-08-21T09:45:43;2.65;;;1.45;;
22070;SDS011;11200;51.488;6.668;2022-08-21T09:48:11;3.83;;;1.67;;
22070;SDS011;11200;51.488;6.668;2022-08-21T09:50:38;3.22;;;1.60;;
22070;SDS011;11200;51.488;6.668;2022-08-21T09:53:05;5.10;;;1.73;;
22070;SDS011;11200;51.488;6.668;2022-08-21T09:55:46;2.63;;;1.50;;
22070;SDS011;11200;51.488;6.668;2022-08-21T09:58:37;2.58;;;1.27;;
22070;SDS011;11200;51.488;6.668;2022-08-21T10:01:06;2.65;;;1.38;;
22070;SDS011;11200;51.488;6.668;2022-08-21T10:03:37;2.50;;;1.52;;
22070;SDS011;11200;51.488;6.668;2022-08-21T10:06:04;2.88;;;1.73;;
22070;SDS011;11200;51.488;6.668;2022-08-21T10:08:34;3.53;;;1.30;;
22070;SDS011;11200;51.488;6.668;2022-08-21T10:11:02;2.90;;;1.40;;
22070;SDS011;11200;51.488;6.668;2022-08-21T10:25:40;3.38;;;1.50;;
22070;SDS011;11200;51.488;6.668;2022-08-21T10:29:14;2.45;;;1.33;;
22070;SDS011;11200;51.488;6.668;2022-08-21T10:31:23;2.30;;;1.23;;
22070;SDS011;11200;51.488;6.668;2022-08-21T10:43:13;2.67;;;1.42;;
22070;SDS011;11200;51.488;6.668;2022-08-21T10:48:54;2.67;;;1.40;;
22070;SDS011;11200;51.488;6.668;2022-08-21T10:54:05;2.80;;;1.33;;
22070;SDS011;11200;51.488;6.668;2022-08-21T10:56:43;2.80;;;1.23;;
22070;SDS011;11200;51.488;6.668;2022-08-21T10:59:27;1.95;;;1.20;;
22070;SDS011;11200;51.488;6.668;2022-08-21T11:07:37;2.10;;;1.20;;
22070;SDS011;11200;51.488;6.668;2022-08-21T11:13:47;2.45;;;1.38;;
22070;SDS011;11200;51.488;6.668;2022-08-21T11:16:18;2.80;;;1.40;;
22070;SDS011;11200;51.488;6.668;2022-08-21T11:18:53;3.42;;;1.50;;
22070;SDS011;11200;51.488;6.668;2022-08-21T11:21:34;2.10;;;1.02;;
22070;SDS011;11200;51.488;6.668;2022-08-21T11:27:06;1.20;;;1.00;;
22070;SDS011;11200;51.488;6.668;2022-08-21T11:29:44;2.38;;;1.27;;
22070;SDS011;11200;51.488;6.668;2022-08-21T11:46:20;1.90;;;1.00;;
22070;SDS011;11200;51.488;6.668;2022-08-21T11:49:00;1.50;;;1.00;;
22070;SDS011;11200;51.488;6.668;2022-08-21T11:51:36;2.50;;;1.00;;
22070;SDS011;11200;51.488;6.668;2022-08-21T11:54:16;1.52;;;0.90;;
22070;SDS011;11200;51.488;6.668;2022-08-21T11:56:54;2.63;;;1.23;;
22070;SDS011;11200;51.488;6.668;2022-08-21T11:59:28;2.35;;;1.10;;
22070;SDS011;11200;51.488;6.668;2022-08-21T12:02:02;1.33;;;0.85;;
22070;SDS011;11200;51.488;6.668;2022-08-21T12:04:44;1.92;;;1.00;;
22070;SDS011;11200;51.488;6.668;2022-08-21T12:07:14;2.00;;;1.00;;
22070;SDS011;11200;51.488;6.668;2022-08-21T12:09:53;2.28;;;1.17;;
22070;SDS011;11200;51.488;6.668;2022-08-21T12:12:36;1.73;;;1.00;;
22070;SDS011;11200;51.488;6.668;2022-08-21T12:15:05;2.17;;;1.00;;
22070;SDS011;11200;51.488;6.668;2022-08-21T12:17:37;1.15;;;1.00;;
22070;SDS011;11200;51.488;6.668;2022-08-21T12:22:52;1.70;;;1.00;;
22070;SDS011;11200;51.488;6.668;2022-08-21T12:25:26;1.70;;;1.00;;
22070;SDS011;11200;51.488;6.668;2022-08-21T12:28:23;1.48;;;0.90;;
22070;SDS011;11200;51.488;6.668;2022-08-21T12:30:49;1.92;;;0.98;;
22070;SDS011;11200;51.488;6.668;2022-08-21T12:33:29;1.75;;;1.10;;
22070;SDS011;11200;51.488;6.668;2022-08-21T12:38:43;1.80;;;0.90;;
22070;SDS011;11200;51.488;6.668;2022-08-21T12:41:41;1.08;;;0.77;;
22070;SDS011;11200;51.488;6.668;2022-08-21T12:44:13;1.85;;;1.02;;
22070;SDS011;11200;51.488;6.668;2022-08-21T12:46:52;1.48;;;0.98;;
22070;SDS011;11200;51.488;6.668;2022-08-21T12:49:36;2.25;;;1.08;;
22070;SDS011;11200;51.488;6.668;2022-08-21T12:54:40;3.47;;;1.30;;
22070;SDS011;11200;51.488;6.668;2022-08-21T12:57:08;1.95;;;1.00;;
22070;SDS011;11200;51.488;6.668;2022-08-21T12:59:45;2.05;;;1.20;;
22070;SDS011;11200;51.488;6.668;2022-08-21T13:02:16;1.30;;;0.90;;
22070;SDS011;11200;51.488;6.668;2022-08-21T13:04:44;1.25;;;0.98;;
22070;SDS011;11200;51.488;6.668;2022-08-21T13:07:13;2.20;;;1.00;;
22070;SDS011;11200;51.488;6.668;2022-08-21T13:09:49;1.63;;;1.00;;
22070;SDS011;11200;51.488;6.668;2022-08-21T13:12:19;1.30;;;1.00;;
22070;SDS011;11200;51.488;6.668;2022-08-21T13:14:46;1.50;;;0.95;;
22070;SDS011;11200;51.488;6.668;2022-08-21T13:17:17;1.92;;;0.95;;
22070;SDS011;11200;51.488;6.668;2022-08-21T13:20:02;1.58;;;0.98;;
22070;SDS011;11200;51.488;6.668;2022-08-21T13:22:39;1.30;;;0.80;;
22070;SDS011;11200;51.488;6.668;2022-08-21T13:25:09;1.85;;;1.05;;
22070;SDS011;11200;51.488;6.668;2022-08-21T13:27:42;1.70;;;1.10;;
22070;SDS011;11200;51.488;6.668;2022-08-21T13:32:43;2.55;;;1.00;;
22070;SDS011;11200;51.488;6.668;2022-08-21T13:35:19;2.10;;;1.10;;
22070;SDS011;11200;51.488;6.668;2022-08-21T13:37:47;1.85;;;1.17;;
22070;SDS011;11200;51.488;6.668;2022-08-21T13:40:19;1.73;;;1.00;;
22070;SDS011;11200;51.488;6.668;2022-08-21T13:42:50;1.83;;;0.90;;
22070;SDS011;11200;51.488;6.668;2022-08-21T13:45:24;2.17;;;1.00;;
22070;SDS011;11200;51.488;6.668;2022-08-21T13:47:55;1.40;;;0.85;;
22070;SDS011;11200;51.488;6.668;2022-08-21T13:50:24;1.85;;;1.10;;
22070;SDS011;11200;51.488;6.668;2022-08-21T13:53:04;1.45;;;1.13;;
22070;SDS011;11200;51.488;6.668;2022-08-21T13:55:50;1.58;;;1.05;;
22070;SDS011;11200;51.488;6.668;2022-08-21T13:58:24;2.22;;;1.23;;
22070;SDS011;11200;51.488;6.668;2022-08-21T14:04:20;1.23;;;0.98;;
22070;SDS011;11200;51.488;6.668;2022-08-21T14:06:50;1.70;;;0.90;;
22070;SDS011;11200;51.488;6.668;2022-08-21T14:09:31;1.83;;;1.00;;
22070;SDS011;11200;51.488;6.668;2022-08-21T14:12:01;1.75;;;1.00;;
22070;SDS011;11200;51.488;6.668;2022-08-21T14:14:37;1.75;;;1.08;;
22070;SDS011;11200;51.488;6.668;2022-08-21T14:17:06;2.78;;;1.02;;
22070;SDS011;11200;51.488;6.668;2022-08-21T14:19:42;1.80;;;0.98;;
22070;SDS011;11200;51.488;6.668;2022-08-21T14:27:33;3.92;;;1.35;;
22070;SDS011;11200;51.488;6.668;2022-08-21T14:30:01;2.83;;;1.23;;
22070;SDS011;11200;51.488;6.668;2022-08-21T14:32:38;2.05;;;1.10;;
22070;SDS011;11200;51.488;6.668;2022-08-21T14:35:05;2.17;;;1.02;;
22070;SDS011;11200;51.488;6.668;2022-08-21T14:37:31;2.00;;;1.05;;
22070;SDS011;11200;51.488;6.668;2022-08-21T14:39:59;2.20;;;1.13;;
22070;SDS011;11200;51.488;6.668;2022-08-21T14:42:26;1.83;;;1.10;;
22070;SDS011;11200;51.488;6.668;2022-08-21T14:44:53;1.42;;;1.00;;
22070;SDS011;11200;51.488;6.668;2022-08-21T14:47:27;1.38;;;0.93;;
22070;SDS011;11200;51.488;6.668;2022-08-21T14:49:53;2.60;;;1.15;;
22070;SDS011;11200;51.488;6.668;2022-08-21T14:52:19;2.20;;;1.20;;
22070;SDS011;11200;51.488;6.668;2022-08-21T14:54:45;2.35;;;1.25;;
22070;SDS011;11200;51.488;6.668;2022-08-21T14:57:11;2.35;;;1.10;;
22070;SDS011;11200;51.488;6.668;2022-08-21T14:59:37;1.88;;;1.00;;
22070;SDS011;11200;51.488;6.668;2022-08-21T15:02:04;2.28;;;1.10;;
22070;SDS011;11200;51.488;6.668;2022-08-21T15:04:31;2.70;;;1.10;;
22070;SDS011;11200;51.488;6.668;2022-08-21T15:06:57;1.85;;;1.08;;
22070;SDS011;11200;51.488;6.668;2022-08-21T15:09:24;2.70;;;1.10;;
22070;SDS011;11200;51.488;6.668;2022-08-21T15:11:52;2.15;;;0.90;;
22070;SDS011;11200;51.488;6.668;2022-08-21T15:14:22;2.42;;;1.10;;
22070;SDS011;11200;51.488;6.668;2022-08-21T15:16:50;2.58;;;1.13;;
22070;SDS011;11200;51.488;6.668;2022-08-21T15:19:16;2.05;;;1.13;;
22070;SDS011;11200;51.488;6.668;2022-08-21T15:21:42;1.90;;;1.10;;
22070;SDS011;11200;51.488;6.668;2022-08-21T15:24:08;2.13;;;1.17;;
22070;SDS011;11200;51.488;6.668;2022-08-21T15:26:34;2.17;;;1.05;;
22070;SDS011;11200;51.488;6.668;2022-08-21T15:29:03;3.05;;;1.27;;
22070;SDS011;11200;51.488;6.668;2022-08-21T15:31:33;1.65;;;1.00;;
22070;SDS011;11200;51.488;6.668;2022-08-21T15:34:06;2.35;;;1.35;;
22070;SDS011;11200;51.488;6.668;2022-08-21T15:36:34;1.73;;;1.30;;
22070;SDS011;11200;51.488;6.668;2022-08-21T15:38:59;1.98;;;1.23;;
22070;SDS011;11200;51.488;6.668;2022-08-21T15:41:25;2.53;;;1.13;;
22070;SDS011;11200;51.488;6.668;2022-08-21T15:43:54;1.58;;;1.00;;
22070;SDS011;11200;51.488;6.668;2022-08-21T15:46:19;1.90;;;1.08;;
22070;SDS011;11200;51.488;6.668;2022-08-21T15:48:48;2.00;;;1.10;;
22070;SDS011;11200;51.488;6.668;2022-08-21T15:51:15;2.28;;;1.08;;
22070;SDS011;11200;51.488;6.668;2022-08-21T15:53:41;2.15;;;1.23;;
22070;SDS011;11200;51.488;6.668;2022-08-21T15:56:23;2.58;;;1.10;;
22070;SDS011;11200;51.488;6.668;2022-08-21T15:58:57;2.17;;;1.20;;
22070;SDS011;11200;51.488;6.668;2022-08-21T16:01:32;2.78;;;1.25;;
22070;SDS011;11200;51.488;6.668;2022-08-21T16:03:59;1.55;;;1.10;;
22070;SDS011;11200;51.488;6.668;2022-08-21T16:06:25;1.60;;;0.90;;
22070;SDS011;11200;51.488;6.668;2022-08-21T16:08:53;2.65;;;1.20;;
22070;SDS011;11200;51.488;6.668;2022-08-21T16:11:18;1.13;;;0.90;;
22070;SDS011;11200;51.488;6.668;2022-08-21T16:13:47;2.40;;;1.10;;
22070;SDS011;11200;51.488;6.668;2022-08-21T16:16:18;2.38;;;1.30;;
22070;SDS011;11200;51.488;6.668;2022-08-21T16:18:45;1.83;;;1.00;;
22070;SDS011;11200;51.488;6.668;2022-08-21T16:21:12;1.85;;;1.00;;
22070;SDS011;11200;51.488;6.668;2022-08-21T16:23:38;1.58;;;0.98;;
22070;SDS011;11200;51.488;6.668;2022-08-21T16:26:05;1.90;;;1.05;;
22070;SDS011;11200;51.488;6.668;2022-08-21T16:28:33;2.50;;;1.23;;
22070;SDS011;11200;51.488;6.668;2022-08-21T16:31:01;2.50;;;1.20;;